Time;durP1;ratioP1;P1;durP2;ratioP2;P2;SDS_P1;SDS_P2;PMS_P1;PMS_P2;Temp;Humidity;BMP_temperature;BMP_pressure;BME280_temperature;BME280_humidity;BME280_pressure;Samples;Min_cycle;Max_cycle;Signal;HPM_P1;HPM_P2
2021/08/12 00:02:30;;;;;;;10.98;6.70;;;20.50;71.40;;;;;;5045379;28;20045;-68
2021/08/12 00:05:14;;;;;;;13.18;6.57;;;20.40;71.50;;;;;;5044536;28;20048;-68
2021/08/12 00:07:59;;;;;;;10.57;6.78;;;20.40;71.60;;;;;;5044548;28;20052;-68
2021/08/12 00:10:43;;;;;;;12.60;7.15;;;20.40;71.70;;;;;;5044465;28;20095;-68
2021/08/12 00:13:27;;;;;;;11.25;7.13;;;20.30;71.80;;;;;;5043487;28;20080;-68
2021/08/12 00:16:12;;;;;;;10.32;6.47;;;20.30;71.80;;;;;;5044502;28;20379;-68
2021/08/12 00:18:56;;;;;;;10.25;6.70;;;20.30;71.90;;;;;;5044267;28;20559;-68
2021/08/12 00:21:41;;;;;;;12.60;7.20;;;20.30;71.60;;;;;;5044292;28;20045;-68
2021/08/12 00:24:25;;;;;;;11.18;6.68;;;20.30;71.60;;;;;;5044193;28;20056;-68
2021/08/12 00:27:10;;;;;;;13.02;7.25;;;20.30;71.70;;;;;;5044697;28;20032;-68
2021/08/12 00:29:54;;;;;;;12.98;6.78;;;20.20;71.70;;;;;;5044348;28;20221;-68
2021/08/12 00:32:38;;;;;;;9.32;6.53;;;20.20;71.60;;;;;;5044675;28;20420;-68
2021/08/12 00:35:22;;;;;;;10.80;6.90;;;20.20;71.70;;;;;;5044544;28;20148;-68
2021/08/12 00:38:06;;;;;;;15.43;7.38;;;20.10;71.80;;;;;;5044372;28;20032;-68
2021/08/12 00:40:51;;;;;;;9.65;6.03;;;20.10;71.80;;;;;;5044336;28;20028;-68
2021/08/12 00:43:35;;;;;;;11.02;6.78;;;20.10;71.70;;;;;;5044169;28;20052;-68
2021/08/12 00:46:19;;;;;;;9.73;6.78;;;20.10;71.70;;;;;;5044076;28;20028;-68
2021/08/12 00:49:04;;;;;;;13.55;6.90;;;20.10;71.70;;;;;;5043464;28;20055;-68
2021/08/12 00:51:48;;;;;;;11.45;6.63;;;20.00;71.70;;;;;;5044055;28;20208;-67
2021/08/12 00:54:35;;;;;;;12.05;6.63;;;20.00;71.70;;;;;;5042886;28;20029;-68
2021/08/12 00:57:19;;;;;;;8.65;6.28;;;20.00;71.70;;;;;;5044228;28;20028;-68
2021/08/12 01:00:05;;;;;;;13.00;6.57;;;19.90;71.90;;;;;;5042810;28;20118;-68
2021/08/12 01:02:50;;;;;;;9.73;6.75;;;19.90;71.90;;;;;;5043834;28;20044;-68
2021/08/12 01:05:34;;;;;;;12.88;7.28;;;19.90;71.80;;;;;;5044174;28;20032;-68
2021/08/12 01:08:39;;;;;;;9.95;6.80;;;19.80;71.90;;;;;;5044058;28;20032;-68
2021/08/12 01:11:33;;;;;;;11.07;6.60;;;19.90;71.90;;;;;;5043105;28;20037;-68
2021/08/12 01:14:28;;;;;;;8.52;6.68;;;19.80;71.90;;;;;;5042726;28;20064;-68
2021/08/12 01:17:22;;;;;;;9.93;6.68;;;19.80;71.90;;;;;;5042612;28;20069;-68
2021/08/12 01:20:12;;;;;;;9.52;6.75;;;19.80;72.10;;;;;;5042855;28;20043;-68
2021/08/12 01:22:57;;;;;;;12.52;7.18;;;19.80;72.00;;;;;;5029180;28;20083;-68
2021/08/12 01:25:42;;;;;;;11.52;7.00;;;19.70;72.00;;;;;;5043697;28;20228;-68
2021/08/12 01:28:31;;;;;;;10.35;6.80;;;19.70;71.90;;;;;;5043632;28;20068;-68
2021/08/12 01:31:21;;;;;;;9.90;6.90;;;19.80;72.00;;;;;;5042541;28;20040;-68
2021/08/12 01:34:10;;;;;;;10.82;6.93;;;19.70;72.10;;;;;;5042549;28;20036;-68
2021/08/12 01:36:54;;;;;;;12.20;7.20;;;19.70;71.90;;;;;;5042485;28;20032;-68
2021/08/12 01:39:39;;;;;;;11.75;6.95;;;19.70;71.90;;;;;;5042326;28;20052;-68
2021/08/12 01:42:26;;;;;;;10.07;6.85;;;19.60;71.90;;;;;;5028584;28;20217;-68
2021/08/12 01:45:12;;;;;;;10.95;7.72;;;19.60;72.00;;;;;;5043709;28;20347;-68
2021/08/12 01:47:57;;;;;;;11.60;6.68;;;19.60;71.90;;;;;;5042321;28;20071;-68
2021/08/12 01:50:42;;;;;;;12.32;7.10;;;19.50;72.00;;;;;;5043069;28;20037;-68
2021/08/12 01:53:27;;;;;;;9.05;6.85;;;19.50;72.10;;;;;;5042262;28;20029;-68
2021/08/12 01:56:11;;;;;;;11.50;6.93;;;19.50;72.10;;;;;;5043218;28;20407;-68
2021/08/12 01:58:57;;;;;;;9.55;6.90;;;19.50;72.10;;;;;;5042116;28;20367;-68
2021/08/12 02:01:46;;;;;;;12.70;7.10;;;19.50;72.10;;;;;;5045592;28;20371;-68
2021/08/12 02:04:30;;;;;;;11.52;7.32;;;19.40;71.90;;;;;;5045988;28;20044;-68
2021/08/12 02:07:14;;;;;;;10.70;6.60;;;19.40;72.00;;;;;;5045901;28;20080;-68
2021/08/12 02:09:58;;;;;;;11.13;6.78;;;19.40;71.90;;;;;;5045900;28;20024;-68
2021/08/12 02:12:43;;;;;;;9.65;6.95;;;19.30;72.10;;;;;;5045839;28;20075;-68
2021/08/12 02:15:28;;;;;;;10.85;6.93;;;19.30;72.10;;;;;;5046725;28;20029;-67
2021/08/12 02:18:12;;;;;;;10.02;7.32;;;19.30;72.20;;;;;;5047074;28;20348;-68
2021/08/12 02:21:07;;;;;;;11.90;7.20;;;19.30;72.30;;;;;;5045884;28;20036;-68
2021/08/12 02:23:59;;;;;;;11.50;6.70;;;19.30;72.40;;;;;;5046497;28;20060;-68
2021/08/12 02:26:47;;;;;;;10.55;6.57;;;19.30;72.20;;;;;;5045644;28;20052;-68
2021/08/12 02:29:32;;;;;;;11.30;7.43;;;19.20;72.30;;;;;;5046952;28;20031;-68
2021/08/12 02:32:16;;;;;;;8.88;6.40;;;19.30;72.20;;;;;;5046869;28;20097;-68
2021/08/12 02:35:01;;;;;;;9.02;6.65;;;19.20;72.20;;;;;;5045813;28;20098;-68
2021/08/12 02:37:45;;;;;;;9.40;6.32;;;19.20;72.20;;;;;;5046644;28;20075;-68
2021/08/12 02:40:29;;;;;;;11.23;6.78;;;19.20;72.20;;;;;;5045468;28;20045;-68
2021/08/12 02:43:14;;;;;;;10.70;7.20;;;19.10;72.30;;;;;;5045441;28;20406;-68
2021/08/12 02:45:58;;;;;;;12.35;6.70;;;19.20;72.20;;;;;;5031425;28;20024;-68
2021/08/12 02:48:42;;;;;;;13.77;7.03;;;19.10;72.20;;;;;;5046142;28;20067;-68
2021/08/12 02:51:27;;;;;;;10.48;6.78;;;19.10;72.20;;;;;;5046031;28;20037;-67
2021/08/12 02:54:11;;;;;;;10.93;6.47;;;19.10;72.40;;;;;;5046448;28;20036;-68
2021/08/12 02:56:56;;;;;;;10.60;7.15;;;19.10;72.40;;;;;;5045212;28;20084;-68
2021/08/12 02:59:41;;;;;;;10.60;6.88;;;19.10;72.50;;;;;;5045499;28;20098;-68
2021/08/12 03:02:25;;;;;;;11.57;7.05;;;19.10;72.40;;;;;;5031133;28;20033;-68
2021/08/12 03:05:09;;;;;;;13.50;7.57;;;19.00;72.50;;;;;;5030888;28;20028;-68
2021/08/12 03:07:53;;;;;;;11.45;6.72;;;18.90;72.60;;;;;;5045106;28;20086;-68
2021/08/12 03:10:37;;;;;;;8.38;6.60;;;18.90;72.70;;;;;;5045690;28;20376;-68
2021/08/12 03:13:22;;;;;;;9.70;6.47;;;18.90;72.70;;;;;;5045876;28;20028;-68
2021/08/12 03:16:06;;;;;;;11.80;6.60;;;18.90;72.60;;;;;;5045781;28;20079;-68
2021/08/12 03:18:50;;;;;;;10.27;6.88;;;18.80;72.80;;;;;;5045565;28;20060;-68
2021/08/12 03:21:34;;;;;;;9.32;6.82;;;18.80;72.80;;;;;;5044539;28;20027;-68
2021/08/12 03:24:19;;;;;;;9.82;6.35;;;18.80;72.90;;;;;;5046081;28;20347;-68
2021/08/12 03:27:03;;;;;;;9.35;6.57;;;18.90;72.80;;;;;;5045593;28;20379;-68
2021/08/12 03:29:50;;;;;;;9.90;6.95;;;18.80;72.80;;;;;;5045472;28;20067;-68
2021/08/12 03:32:34;;;;;;;9.82;6.97;;;18.80;72.80;;;;;;5045970;28;20103;-68
2021/08/12 03:35:18;;;;;;;10.73;6.68;;;18.80;72.80;;;;;;5045669;28;20205;-68
2021/08/12 03:38:03;;;;;;;9.23;6.72;;;18.80;72.90;;;;;;5045186;28;20035;-68
2021/08/12 03:40:48;;;;;;;11.80;7.15;;;18.80;72.80;;;;;;5045529;28;20091;-68
2021/08/12 03:43:32;;;;;;;11.27;7.18;;;18.80;72.80;;;;;;5045348;28;20056;-68
2021/08/12 03:46:16;;;;;;;11.38;6.90;;;18.80;72.90;;;;;;5045034;28;20048;-68
2021/08/12 03:49:03;;;;;;;10.27;6.60;;;18.70;72.90;;;;;;5045092;28;20284;-68
2021/08/12 03:51:47;;;;;;;12.65;7.22;;;18.70;72.80;;;;;;5044893;28;20036;-68
2021/08/12 03:54:32;;;;;;;11.43;6.78;;;18.70;72.90;;;;;;5044832;28;20036;-68
2021/08/12 03:57:16;;;;;;;9.63;6.50;;;18.70;72.90;;;;;;5045261;28;20024;-68
2021/08/12 04:00:05;;;;;;;9.13;6.60;;;18.60;72.90;;;;;;5044829;28;20079;-68
2021/08/12 04:02:49;;;;;;;10.57;6.82;;;18.70;72.90;;;;;;5044813;28;20040;-68
2021/08/12 04:05:33;;;;;;;13.10;6.85;;;18.60;73.00;;;;;;5045173;28;20094;-68
2021/08/12 04:08:18;;;;;;;10.40;7.18;;;18.60;73.10;;;;;;5045034;28;20025;-68
2021/08/12 04:11:02;;;;;;;13.55;7.53;;;18.60;73.10;;;;;;5044535;28;20090;-68
2021/08/12 04:13:46;;;;;;;9.85;6.90;;;18.60;73.10;;;;;;5044721;28;20032;-68
2021/08/12 04:16:31;;;;;;;9.73;6.75;;;18.60;73.10;;;;;;5044452;28;20217;-68
2021/08/12 04:19:15;;;;;;;9.25;6.60;;;18.60;73.00;;;;;;5044318;28;20099;-68
2021/08/12 04:21:59;;;;;;;10.65;7.00;;;18.50;73.00;;;;;;5044238;28;20071;-68
2021/08/12 04:24:44;;;;;;;12.88;7.15;;;18.60;73.00;;;;;;5043815;28;20061;-68
2021/08/12 04:27:28;;;;;;;11.43;6.47;;;18.60;73.00;;;;;;5044267;28;20272;-68
2021/08/12 04:30:12;;;;;;;16.00;7.32;;;18.60;72.90;;;;;;5044730;28;20085;-68
2021/08/12 04:32:57;;;;;;;13.65;7.13;;;18.60;73.00;;;;;;5044362;28;20052;-68
2021/08/12 04:35:41;;;;;;;10.23;6.68;;;18.60;73.00;;;;;;5044662;28;20036;-68
2021/08/12 04:38:26;;;;;;;9.82;6.28;;;18.60;73.10;;;;;;5044452;28;20212;-68
2021/08/12 04:41:10;;;;;;;10.73;7.05;;;18.60;73.30;;;;;;5044051;28;20027;-68
2021/08/12 04:43:54;;;;;;;15.30;7.03;;;18.60;73.20;;;;;;5044054;28;20155;-68
2021/08/12 04:46:38;;;;;;;10.15;6.95;;;18.60;73.40;;;;;;5043936;28;20076;-68
2021/08/12 04:49:23;;;;;;;11.38;7.07;;;18.60;73.40;;;;;;5043928;28;20076;-68
2021/08/12 04:52:08;;;;;;;10.60;6.85;;;18.60;73.40;;;;;;5043892;28;20031;-68
2021/08/12 04:54:52;;;;;;;16.85;6.97;;;18.60;73.30;;;;;;5043940;28;20044;-68
2021/08/12 04:57:36;;;;;;;12.00;7.30;;;18.70;73.30;;;;;;5043761;28;20209;-68
2021/08/12 05:00:21;;;;;;;9.95;7.28;;;18.70;73.50;;;;;;5044164;28;20049;-68
2021/08/12 05:03:05;;;;;;;13.65;7.18;;;18.70;73.60;;;;;;5043836;28;20044;-68
2021/08/12 05:05:59;;;;;;;11.65;6.95;;;18.70;73.80;;;;;;5043832;28;20037;-68
2021/08/12 05:08:43;;;;;;;10.30;7.18;;;18.70;73.80;;;;;;5044200;28;20088;-68
2021/08/12 05:11:27;;;;;;;12.15;7.25;;;18.80;73.90;;;;;;5044345;28;20109;-69
2021/08/12 05:14:11;;;;;;;11.25;7.10;;;18.80;73.80;;;;;;5043515;28;20067;-69
2021/08/12 05:16:56;;;;;;;14.98;7.53;;;18.80;74.20;;;;;;5044006;28;20340;-69
2021/08/12 05:19:40;;;;;;;12.70;7.88;;;18.80;74.10;;;;;;5043687;28;20124;-69
2021/08/12 05:22:24;;;;;;;15.40;7.90;;;18.80;74.20;;;;;;5043614;28;20220;-69
2021/08/12 05:25:09;;;;;;;12.60;7.95;;;18.80;74.40;;;;;;5043461;28;20110;-69
2021/08/12 05:27:53;;;;;;;11.65;7.45;;;18.80;74.60;;;;;;5043479;28;20032;-69
2021/08/12 05:30:37;;;;;;;13.40;7.65;;;18.80;74.60;;;;;;5043438;28;20028;-68
2021/08/12 05:33:22;;;;;;;13.88;8.27;;;18.90;74.50;;;;;;5043449;28;20276;-68
2021/08/12 05:36:06;;;;;;;12.32;7.32;;;19.00;74.40;;;;;;5047803;28;20089;-69
2021/08/12 05:38:50;;;;;;;15.80;7.78;;;19.10;74.50;;;;;;5047483;28;20400;-69
2021/08/12 05:41:34;;;;;;;16.30;7.65;;;19.10;74.60;;;;;;5047865;28;20059;-69
2021/08/12 05:44:19;;;;;;;13.65;7.47;;;19.10;74.80;;;;;;5047642;28;20075;-69
2021/08/12 05:47:03;;;;;;;11.88;7.70;;;19.20;74.80;;;;;;5047508;28;20032;-69
2021/08/12 05:49:47;;;;;;;18.25;8.05;;;19.20;75.10;;;;;;5047312;28;20032;-69
2021/08/12 05:52:32;;;;;;;12.75;7.57;;;19.30;75.10;;;;;;5047204;28;20390;-69
2021/08/12 05:55:16;;;;;;;12.63;8.00;;;19.30;75.10;;;;;;5047341;28;20029;-69
2021/08/12 05:58:00;;;;;;;14.68;7.90;;;19.40;75.20;;;;;;5047043;28;20138;-69
2021/08/12 06:00:44;;;;;;;11.35;8.48;;;19.40;75.20;;;;;;5047030;28;20369;-68
2021/08/12 06:03:28;;;;;;;14.45;8.95;;;19.50;75.10;;;;;;5046940;28;20031;-68
2021/08/12 06:06:14;;;;;;;10.95;7.60;;;19.60;74.90;;;;;;5047423;28;20020;-69
2021/08/12 06:08:58;;;;;;;10.65;7.25;;;19.70;74.70;;;;;;5047031;28;20286;-69
2021/08/12 06:11:43;;;;;;;14.35;7.45;;;19.80;74.80;;;;;;5047357;28;20348;-69
2021/08/12 06:14:27;;;;;;;12.38;7.65;;;19.80;74.70;;;;;;5046793;28;20136;-69
2021/08/12 06:17:11;;;;;;;12.70;7.20;;;19.80;74.70;;;;;;5046548;28;20033;-69
2021/08/12 06:19:57;;;;;;;12.35;7.75;;;19.90;74.40;;;;;;5046632;28;20036;-69
2021/08/12 06:22:41;;;;;;;10.70;7.68;;;20.00;74.30;;;;;;5046556;28;20255;-69
2021/08/12 06:25:26;;;;;;;11.77;7.40;;;20.10;74.10;;;;;;5046443;28;20306;-69
2021/08/12 06:28:10;;;;;;;13.50;7.30;;;20.20;74.10;;;;;;5046461;28;20040;-69
2021/08/12 06:30:55;;;;;;;13.52;7.82;;;20.20;74.00;;;;;;5046421;28;20044;-69
2021/08/12 06:33:39;;;;;;;13.40;7.75;;;20.30;74.10;;;;;;5046320;28;20097;-69
2021/08/12 06:36:23;;;;;;;10.27;6.78;;;20.30;73.80;;;;;;5046276;28;20071;-68
2021/08/12 06:39:07;;;;;;;12.73;7.55;;;20.30;73.70;;;;;;5046702;28;20051;-69
2021/08/12 06:41:52;;;;;;;13.93;7.60;;;20.40;73.60;;;;;;5046386;28;20071;-69
2021/08/12 06:44:36;;;;;;;11.60;7.35;;;20.50;73.30;;;;;;5046709;28;20387;-69
2021/08/12 06:47:20;;;;;;;9.80;7.35;;;20.50;73.30;;;;;;5045287;28;20024;-69
2021/08/12 06:50:05;;;;;;;8.98;6.65;;;20.60;73.10;;;;;;5046163;28;20040;-70
2021/08/12 06:52:49;;;;;;;12.18;8.05;;;20.70;73.10;;;;;;5046025;28;20350;-69
2021/08/12 06:55:34;;;;;;;12.52;7.97;;;20.80;73.40;;;;;;5045942;28;20048;-69
2021/08/12 06:58:19;;;;;;;12.45;7.40;;;20.90;73.60;;;;;;5045822;28;20031;-69
2021/08/12 07:01:03;;;;;;;12.32;7.00;;;21.00;73.60;;;;;;5046290;28;20036;-69
2021/08/12 07:03:48;;;;;;;10.48;7.13;;;21.20;73.20;;;;;;5045907;28;20053;-70
2021/08/12 07:06:32;;;;;;;14.73;7.30;;;21.30;72.80;;;;;;5045607;28;20139;-69
2021/08/12 07:09:16;;;;;;;13.65;6.95;;;21.40;73.00;;;;;;5045251;28;20028;-69
2021/08/12 07:12:00;;;;;;;9.77;6.38;;;21.50;73.20;;;;;;5045909;28;20052;-69
2021/08/12 07:14:45;;;;;;;11.18;6.65;;;21.60;72.00;;;;;;5044754;28;20260;-69
2021/08/12 07:17:29;;;;;;;10.23;6.40;;;21.70;71.70;;;;;;5046168;28;20101;-69
2021/08/12 07:20:13;;;;;;;10.40;6.43;;;21.80;71.80;;;;;;5045631;28;20095;-69
2021/08/12 07:22:57;;;;;;;11.38;7.00;;;21.80;71.80;;;;;;5048179;28;20048;-69
2021/08/12 07:25:41;;;;;;;8.68;6.43;;;22.00;72.20;;;;;;5046514;28;20117;-69
2021/08/12 07:28:25;;;;;;;11.32;6.47;;;22.10;71.20;;;;;;5045664;28;20383;-70
2021/08/12 07:31:11;;;;;;;12.48;6.70;;;22.30;71.50;;;;;;5045506;28;20071;-70
2021/08/12 07:33:56;;;;;;;12.60;7.30;;;22.30;71.50;;;;;;5045401;28;20348;-69
2021/08/12 07:36:40;;;;;;;8.45;6.28;;;22.50;69.50;;;;;;5045282;28;20365;-69
2021/08/12 07:39:24;;;;;;;11.77;6.18;;;22.80;68.50;;;;;;5045170;28;20041;-69
2021/08/12 07:42:08;;;;;;;11.00;6.70;;;23.20;67.40;;;;;;5045554;28;20079;-70
2021/08/12 07:44:53;;;;;;;9.48;6.13;;;23.50;67.80;;;;;;5045301;28;20068;-70
2021/08/12 07:47:37;;;;;;;7.70;5.65;;;23.60;67.80;;;;;;5045508;28;20052;-70
2021/08/12 07:50:21;;;;;;;8.13;6.00;;;23.70;67.80;;;;;;5045360;28;20332;-70
2021/08/12 07:53:06;;;;;;;10.75;5.88;;;23.80;66.40;;;;;;5045376;28;20371;-70
2021/08/12 07:55:50;;;;;;;9.45;6.25;;;23.90;67.50;;;;;;5044929;28;20048;-70
2021/08/12 07:58:34;;;;;;;9.30;5.80;;;24.00;66.80;;;;;;5045248;28;20052;-70
2021/08/12 08:01:19;;;;;;;9.35;6.45;;;24.10;66.80;;;;;;5044803;28;20360;-70
2021/08/12 08:04:04;;;;;;;10.32;5.80;;;24.20;66.10;;;;;;5043899;28;20032;-70
2021/08/12 08:06:48;;;;;;;10.52;6.35;;;24.40;64.00;;;;;;5044730;28;20024;-70
2021/08/12 08:09:32;;;;;;;7.53;5.60;;;24.40;64.80;;;;;;5043732;28;20032;-70
2021/08/12 08:12:17;;;;;;;6.75;5.53;;;24.60;65.50;;;;;;5045059;28;20033;-70
2021/08/12 08:15:01;;;;;;;9.00;6.10;;;24.70;65.00;;;;;;5044688;28;20064;-70
2021/08/12 08:17:45;;;;;;;9.98;5.80;;;24.70;64.20;;;;;;5044314;28;20035;-70
2021/08/12 08:20:30;;;;;;;10.35;6.03;;;24.70;63.70;;;;;;5044774;28;20254;-70
2021/08/12 08:23:14;;;;;;;9.60;6.30;;;24.90;65.10;;;;;;5044539;28;20052;-70
2021/08/12 08:25:58;;;;;;;10.68;6.15;;;25.00;65.90;;;;;;5044332;28;20045;-70
2021/08/12 08:28:43;;;;;;;8.27;5.93;;;25.20;65.10;;;;;;5044445;28;20139;-70
2021/08/12 08:31:27;;;;;;;7.63;5.70;;;25.30;65.20;;;;;;5044432;28;20052;-70
2021/08/12 08:34:11;;;;;;;10.52;6.10;;;25.30;64.80;;;;;;5044388;28;20044;-70
2021/08/12 08:36:56;;;;;;;8.32;6.25;;;25.30;63.20;;;;;;5044109;28;20394;-70
2021/08/12 08:39:40;;;;;;;14.10;6.30;;;25.30;63.00;;;;;;5044011;28;20079;-70
2021/08/12 08:42:24;;;;;;;8.77;5.70;;;25.30;63.50;;;;;;5043916;28;20387;-70
2021/08/12 08:45:09;;;;;;;9.95;6.35;;;25.40;64.00;;;;;;5044447;28;20024;-70
2021/08/12 08:47:54;;;;;;;11.80;6.68;;;25.40;63.50;;;;;;5044645;28;20036;-70
2021/08/12 08:50:38;;;;;;;9.40;6.07;;;25.50;62.50;;;;;;5043918;28;20082;-70
2021/08/12 08:53:22;;;;;;;8.50;5.60;;;25.70;62.50;;;;;;5042882;28;20074;-70
2021/08/12 08:56:06;;;;;;;8.07;6.10;;;25.80;61.80;;;;;;5043932;28;20036;-70
2021/08/12 08:58:51;;;;;;;10.93;5.88;;;25.80;61.20;;;;;;5042782;28;20040;-70
2021/08/12 09:01:35;;;;;;;7.88;5.70;;;26.00;63.40;;;;;;5042993;28;20067;-70
2021/08/12 09:04:19;;;;;;;9.55;6.03;;;26.20;61.00;;;;;;5043751;28;20048;-70
2021/08/12 09:07:04;;;;;;;9.00;6.53;;;26.20;58.90;;;;;;5043719;28;20032;-70
2021/08/12 09:09:48;;;;;;;13.15;6.40;;;26.30;59.00;;;;;;5043323;28;20029;-70
2021/08/12 09:12:32;;;;;;;8.68;5.85;;;26.40;59.20;;;;;;5043414;28;20060;-70
2021/08/12 09:15:20;;;;;;;9.50;6.28;;;26.50;59.40;;;;;;5043799;28;20016;-71
2021/08/12 09:18:06;;;;;;;9.55;6.20;;;26.60;59.70;;;;;;5043576;28;20056;-70
2021/08/12 09:20:55;;;;;;;9.98;5.68;;;26.70;57.80;;;;;;5029030;28;20229;-70
2021/08/12 09:23:39;;;;;;;7.95;5.78;;;26.70;57.60;;;;;;5043647;28;20156;-70
2021/08/12 09:26:24;;;;;;;8.68;5.97;;;26.80;57.40;;;;;;5029022;28;20024;-70
2021/08/12 09:29:08;;;;;;;10.02;6.40;;;26.80;58.20;;;;;;5043841;28;20041;-70
2021/08/12 09:31:59;;;;;;;11.40;6.20;;;26.90;57.40;;;;;;5043656;28;20079;-70
2021/08/12 09:34:45;;;;;;;10.18;6.60;;;27.00;56.40;;;;;;5043693;28;20075;-70
2021/08/12 09:37:31;;;;;;;9.48;6.05;;;27.20;56.80;;;;;;5043635;28;20079;-70
2021/08/12 09:40:15;;;;;;;8.63;5.75;;;27.30;57.70;;;;;;5043262;28;20277;-70
2021/08/12 09:43:01;;;;;;;11.05;6.32;;;27.40;56.40;;;;;;5028518;28;20027;-70
2021/08/12 09:45:45;;;;;;;8.80;6.40;;;27.50;57.10;;;;;;5043357;28;20040;-70
2021/08/12 09:48:29;;;;;;;7.50;5.88;;;27.50;55.00;;;;;;5042311;28;20028;-69
2021/08/12 09:51:14;;;;;;;11.95;5.80;;;27.60;54.40;;;;;;5043738;28;20056;-70
2021/08/12 09:54:04;;;;;;;9.80;5.65;;;27.60;54.10;;;;;;5042474;28;20252;-70
2021/08/12 09:56:49;;;;;;;7.55;5.60;;;27.80;55.30;;;;;;5028915;28;20036;-70
2021/08/12 09:59:33;;;;;;;8.90;6.10;;;27.80;56.50;;;;;;5043628;28;20036;-70
2021/08/12 10:02:17;;;;;;;9.25;5.90;;;27.80;54.00;;;;;;5028767;28;20031;-70
2021/08/12 10:05:06;;;;;;;10.48;6.53;;;28.10;55.30;;;;;;5043503;28;20037;-70
2021/08/12 10:07:54;;;;;;;13.15;6.20;;;28.10;53.10;;;;;;5043149;28;20072;-70
2021/08/12 10:10:40;;;;;;;12.65;6.22;;;28.30;56.30;;;;;;5043370;28;20044;-70
2021/08/12 10:13:24;;;;;;;7.85;5.50;;;28.30;53.90;;;;;;5043378;28;20034;-70
2021/08/12 10:16:09;;;;;;;13.10;6.00;;;28.20;53.40;;;;;;5042365;28;20090;-70
2021/08/12 10:18:55;;;;;;;10.75;5.95;;;28.30;51.70;;;;;;5043068;28;20032;-70
2021/08/12 10:21:40;;;;;;;11.35;6.18;;;28.30;53.10;;;;;;5044476;28;20032;-70
2021/08/12 10:24:25;;;;;;;12.32;6.20;;;28.40;53.80;;;;;;5031688;28;20364;-70
2021/08/12 10:27:11;;;;;;;8.40;5.75;;;28.30;54.50;;;;;;5047065;28;20024;-70
2021/08/12 10:29:55;;;;;;;8.57;5.88;;;28.40;55.10;;;;;;5045163;28;20232;-70
2021/08/12 10:32:56;;;;;;;10.32;6.35;;;28.40;53.90;;;;;;5046906;28;20208;-70
2021/08/12 10:35:40;;;;;;;9.02;5.78;;;28.40;51.50;;;;;;5045971;28;20032;-70
2021/08/12 10:38:25;;;;;;;8.82;6.05;;;28.50;52.90;;;;;;5046747;28;20076;-70
2021/08/12 10:41:09;;;;;;;10.75;5.93;;;28.50;51.90;;;;;;5031877;28;20036;-70
2021/08/12 10:43:54;;;;;;;12.05;5.97;;;28.50;51.50;;;;;;5045848;28;20033;-70
2021/08/12 10:46:40;;;;;;;9.68;5.90;;;28.50;49.70;;;;;;5045587;28;20243;-70
2021/08/12 10:49:28;;;;;;;8.98;5.53;;;28.50;49.80;;;;;;5046210;28;20037;-70
2021/08/12 10:52:13;;;;;;;9.30;5.97;;;28.70;50.10;;;;;;5046336;28;20201;-70
2021/08/12 10:55:17;;;;;;;8.63;5.65;;;28.70;51.40;;;;;;5046049;28;20033;-70
2021/08/12 11:01:08;;;;;;;9.43;5.80;;;29.00;47.40;;;;;;5045990;28;20236;-70
2021/08/12 11:03:53;;;;;;;7.43;5.32;;;29.00;49.00;;;;;;5045909;28;20041;-70
2021/08/12 11:06:39;;;;;;;10.82;5.90;;;29.20;50.40;;;;;;5046095;28;20401;-70
2021/08/12 11:09:25;;;;;;;9.10;5.80;;;29.30;52.80;;;;;;5045649;28;20052;-70
2021/08/12 11:12:09;;;;;;;11.32;5.50;;;29.40;52.00;;;;;;5045309;28;20335;-70
2021/08/12 11:14:54;;;;;;;9.73;6.10;;;29.50;51.20;;;;;;5045874;28;20332;-70
2021/08/12 11:17:56;;;;;;;8.02;5.82;;;29.40;49.10;;;;;;5045162;28;20063;-70
2021/08/12 11:20:46;;;;;;;9.55;6.10;;;29.70;52.90;;;;;;5046050;28;20379;-70
2021/08/12 11:23:39;;;;;;;7.88;5.68;;;29.50;48.00;;;;;;5044610;28;20072;-70
2021/08/12 11:26:23;;;;;;;9.45;5.63;;;29.70;48.50;;;;;;5045960;28;20036;-70
2021/08/12 11:29:29;;;;;;;7.80;6.10;;;29.70;49.20;;;;;;5045348;28;20347;-70
2021/08/12 11:32:14;;;;;;;10.02;5.70;;;29.70;48.40;;;;;;5044663;28;20093;-70
2021/08/12 11:34:58;;;;;;;9.68;5.80;;;29.60;47.70;;;;;;5044564;28;20048;-70
2021/08/12 11:37:42;;;;;;;8.55;5.70;;;29.40;46.60;;;;;;5045449;28;20042;-70
2021/08/12 11:40:26;;;;;;;9.13;5.75;;;29.40;45.90;;;;;;5045388;28;20082;-70
2021/08/12 11:43:11;;;;;;;10.30;5.88;;;29.60;47.00;;;;;;5045296;28;20240;-70
2021/08/12 11:45:56;;;;;;;8.57;5.82;;;29.60;45.50;;;;;;5044269;28;20028;-70
2021/08/12 11:48:40;;;;;;;7.57;5.18;;;29.60;46.90;;;;;;5045018;28;20056;-70
2021/08/12 11:51:30;;;;;;;11.52;5.35;;;29.80;46.50;;;;;;5045013;28;20075;-70
2021/08/12 11:54:28;;;;;;;9.90;5.57;;;30.00;48.80;;;;;;5044575;28;20264;-70
2021/08/12 11:57:12;;;;;;;10.10;5.97;;;30.20;48.40;;;;;;5045111;28;20387;-70
2021/08/12 12:00:05;;;;;;;6.15;5.18;;;30.20;48.40;;;;;;5044859;28;20075;-71
2021/08/12 12:02:57;;;;;;;9.55;5.13;;;30.20;46.00;;;;;;5044007;28;20036;-70
2021/08/12 12:05:46;;;;;;;8.07;4.78;;;30.30;45.60;;;;;;5045202;28;20041;-70
2021/08/12 12:08:31;;;;;;;9.10;5.38;;;30.40;45.20;;;;;;5030620;28;20036;-70
2021/08/12 12:11:15;;;;;;;9.57;4.80;;;30.40;43.70;;;;;;5044596;28;20068;-70
2021/08/12 12:14:02;;;;;;;9.50;5.10;;;30.50;45.60;;;;;;5043706;28;20088;-70
2021/08/12 12:17:25;;;;;;;7.50;4.97;;;30.50;44.60;;;;;;5044550;28;20036;-70
2021/08/12 12:20:14;;;;;;;6.75;4.43;;;30.70;46.60;;;;;;5003221;28;20077;-70
2021/08/12 12:23:00;;;;;;;7.63;4.72;;;30.80;46.30;;;;;;5003083;28;20090;-70
2021/08/12 12:25:48;;;;;;;9.32;5.13;;;30.80;46.40;;;;;;5040013;28;20052;-70
2021/08/12 12:28:42;;;;;;;8.68;4.75;;;30.80;45.20;;;;;;5044222;28;20104;-70
2021/08/12 12:31:26;;;;;;;6.88;4.90;;;30.90;44.20;;;;;;5044418;28;20052;-70
2021/08/12 12:34:10;;;;;;;5.97;4.70;;;30.90;45.50;;;;;;5044438;28;20379;-70
2021/08/12 12:36:55;;;;;;;6.57;4.85;;;30.90;44.70;;;;;;5044242;28;20059;-70
2021/08/12 12:39:39;;;;;;;8.77;4.78;;;30.90;43.70;;;;;;5043997;28;20040;-70
2021/08/12 12:42:24;;;;;;;11.20;5.22;;;30.90;42.90;;;;;;5043127;28;20028;-70
2021/08/12 12:45:10;;;;;;;7.72;5.50;;;31.00;45.50;;;;;;5043829;28;20072;-70
2021/08/12 12:48:05;;;;;;;9.30;5.13;;;31.10;45.00;;;;;;5044149;28;20035;-70
2021/08/12 12:50:49;;;;;;;8.10;4.93;;;31.10;43.10;;;;;;5043152;28;20075;-70
2021/08/12 12:53:40;;;;;;;6.57;4.78;;;31.10;42.40;;;;;;5044327;28;20055;-70
2021/08/12 12:56:25;;;;;;;6.30;4.50;;;31.00;43.60;;;;;;5044272;28;20055;-70
2021/08/12 12:59:10;;;;;;;7.10;5.22;;;31.10;43.80;;;;;;5044074;28;20092;-70
2021/08/12 13:01:55;;;;;;;7.45;4.88;;;31.20;45.00;;;;;;5044194;28;20045;-70
2021/08/12 13:04:39;;;;;;;7.78;5.07;;;31.20;44.50;;;;;;5043972;28;20036;-70
2021/08/12 13:07:23;;;;;;;7.00;4.75;;;31.20;43.40;;;;;;5043666;28;20201;-70
2021/08/12 13:10:20;;;;;;;7.65;4.55;;;31.30;45.00;;;;;;5042858;28;20406;-70
2021/08/12 13:13:04;;;;;;;8.02;4.45;;;31.20;45.30;;;;;;5043612;28;20028;-70
2021/08/12 13:15:49;;;;;;;7.32;4.97;;;31.30;45.10;;;;;;5043644;28;20431;-70
2021/08/12 13:18:52;;;;;;;6.70;4.70;;;31.30;45.20;;;;;;5043431;28;20067;-70
2021/08/12 13:21:38;;;;;;;7.65;4.70;;;31.30;41.60;;;;;;5043468;28;20028;-70
2021/08/12 13:24:37;;;;;;;7.55;4.30;;;31.20;41.90;;;;;;5043298;28;20044;-70
2021/08/12 13:27:21;;;;;;;6.72;4.20;;;31.20;42.50;;;;;;5043476;28;20382;-67
2021/08/12 13:30:06;;;;;;;6.72;4.30;;;31.20;41.30;;;;;;5043917;28;20029;-70
2021/08/12 13:32:49;;;;;;;6.35;4.07;;;31.30;43.30;;;;;;5043633;28;20307;-70
2021/08/12 13:35:34;;;;;;;5.80;4.30;;;31.20;41.60;;;;;;5029097;28;20092;-70
2021/08/12 13:38:18;;;;;;;7.95;4.57;;;31.30;41.80;;;;;;5043344;28;20105;-70
2021/08/12 13:41:02;;;;;;;8.68;4.63;;;31.30;43.20;;;;;;5043634;28;20121;-70
2021/08/12 13:43:46;;;;;;;6.28;4.38;;;31.30;42.70;;;;;;5043330;28;20105;-70
2021/08/12 13:46:31;;;;;;;6.55;4.53;;;31.40;44.00;;;;;;5043282;28;20048;-70
2021/08/12 13:49:15;;;;;;;7.22;4.43;;;31.40;45.10;;;;;;5043278;28;20083;-70
2021/08/12 13:52:00;;;;;;;8.40;4.20;;;31.40;43.60;;;;;;5042417;28;20335;-70
2021/08/12 13:54:46;;;;;;;6.07;4.18;;;31.30;43.70;;;;;;5043201;28;20028;-70
2021/08/12 13:57:30;;;;;;;5.65;3.97;;;31.20;42.00;;;;;;5047020;28;20032;-69
2021/08/12 14:00:15;;;;;;;7.13;4.70;;;31.20;43.90;;;;;;5047486;28;20072;-71
2021/08/12 14:02:59;;;;;;;6.50;4.43;;;31.20;43.50;;;;;;5047186;28;20228;-70
2021/08/12 14:05:53;;;;;;;6.88;4.70;;;31.20;44.30;;;;;;5047585;28;20060;-70
2021/08/12 14:08:37;;;;;;;8.73;4.88;;;31.20;42.60;;;;;;5052585;28;20334;-70
2021/08/12 14:11:21;;;;;;;6.45;4.40;;;31.20;43.00;;;;;;5046837;28;20036;-70
2021/08/12 14:14:06;;;;;;;6.57;4.50;;;31.20;43.50;;;;;;5045848;28;20090;-70
2021/08/12 14:16:50;;;;;;;5.88;4.60;;;31.20;44.80;;;;;;5046833;28;20356;-70
2021/08/12 14:19:34;;;;;;;7.93;5.20;;;31.20;45.70;;;;;;5046609;28;20038;-70